sensor_id;sensor_type;location;lat;lon;timestamp;pressure;altitude;pressure_sealevel;temperature;humidity
77041;BME280;65974;42.664;23.264;2023-12-20T00:00:41;94772.22;;;-0.40;95.98
77041;BME280;65974;42.664;23.264;2023-12-20T00:03:06;94765.47;;;-0.41;95.81
77041;BME280;65974;42.664;23.264;2023-12-20T00:05:32;94766.41;;;-0.37;96.07
77041;BME280;65974;42.664;23.264;2023-12-20T00:07:58;94765.03;;;-0.34;95.82
77041;BME280;65974;42.664;23.264;2023-12-20T00:10:24;94755.63;;;-0.35;95.67
77041;BME280;65974;42.664;23.264;2023-12-20T00:12:49;94742.94;;;-0.20;95.04
77041;BME280;65974;42.664;23.264;2023-12-20T00:15:15;94746.81;;;-0.09;94.61
77041;BME280;65974;42.664;23.264;2023-12-20T00:17:40;94747.38;;;-0.20;94.15
77041;BME280;65974;42.664;23.264;2023-12-20T00:20:06;94745.56;;;-0.11;94.62
77041;BME280;65974;42.664;23.264;2023-12-20T00:22:32;94737.84;;;-0.16;94.10
77041;BME280;65974;42.664;23.264;2023-12-20T00:25:00;94738.16;;;-0.18;94.18
77041;BME280;65974;42.664;23.264;2023-12-20T00:27:27;94726.31;;;-0.15;93.91
77041;BME280;65974;42.664;23.264;2023-12-20T00:29:52;94724.31;;;-0.18;93.53
77041;BME280;65974;42.664;23.264;2023-12-20T00:32:18;94720.88;;;-0.27;93.73
77041;BME280;65974;42.664;23.264;2023-12-20T00:34:43;94712.44;;;-0.24;93.93
77041;BME280;65974;42.664;23.264;2023-12-20T00:37:10;94708.72;;;-0.23;93.69
77041;BME280;65974;42.664;23.264;2023-12-20T00:39:36;94706.41;;;-0.25;93.55
77041;BME280;65974;42.664;23.264;2023-12-20T00:42:02;94704.69;;;-0.29;93.62
77041;BME280;65974;42.664;23.264;2023-12-20T00:44:27;94700.75;;;-0.18;93.12
77041;BME280;65974;42.664;23.264;2023-12-20T00:46:53;94701.28;;;-0.38;93.59
77041;BME280;65974;42.664;23.264;2023-12-20T00:49:19;94699.28;;;-0.41;94.37
77041;BME280;65974;42.664;23.264;2023-12-20T00:51:45;94710.69;;;-0.37;94.47
77041;BME280;65974;42.664;23.264;2023-12-20T00:54:12;94705.63;;;-0.25;94.50
77041;BME280;65974;42.664;23.264;2023-12-20T00:56:37;94697.03;;;-0.26;94.19
77041;BME280;65974;42.664;23.264;2023-12-20T00:59:04;94695.31;;;-0.30;93.63
77041;BME280;65974;42.664;23.264;2023-12-20T01:01:29;94690.13;;;-0.22;93.20
77041;BME280;65974;42.664;23.264;2023-12-20T01:03:55;94692.88;;;-0.27;92.95
77041;BME280;65974;42.664;23.264;2023-12-20T01:06:20;94690.97;;;-0.43;93.74
77041;BME280;65974;42.664;23.264;2023-12-20T01:08:46;94691.50;;;-0.55;93.88
77041;BME280;65974;42.664;23.264;2023-12-20T01:11:11;94681.19;;;-0.60;93.85
77041;BME280;65974;42.664;23.264;2023-12-20T01:13:37;94680.63;;;-0.48;94.37
77041;BME280;65974;42.664;23.264;2023-12-20T01:16:03;94671.13;;;-0.36;93.97
77041;BME280;65974;42.664;23.264;2023-12-20T01:18:29;94675.00;;;-0.25;94.90
77041;BME280;65974;42.664;23.264;2023-12-20T01:20:55;94676.91;;;-0.08;94.37
77041;BME280;65974;42.664;23.264;2023-12-20T01:23:20;94666.31;;;-0.03;93.58
77041;BME280;65974;42.664;23.264;2023-12-20T01:25:46;94667.03;;;-0.20;92.55
77041;BME280;65974;42.664;23.264;2023-12-20T01:28:11;94667.13;;;-0.33;93.19
77041;BME280;65974;42.664;23.264;2023-12-20T01:30:37;94657.72;;;-0.43;93.53
77041;BME280;65974;42.664;23.264;2023-12-20T01:33:03;94653.69;;;-0.49;94.50
77041;BME280;65974;42.664;23.264;2023-12-20T01:35:28;94653.22;;;-0.51;94.45
77041;BME280;65974;42.664;23.264;2023-12-20T01:37:54;94650.56;;;-0.59;95.48
77041;BME280;65974;42.664;23.264;2023-12-20T01:40:22;94641.56;;;-0.45;95.56
77041;BME280;65974;42.664;23.264;2023-12-20T01:43:01;94639.94;;;-0.63;95.87
77041;BME280;65974;42.664;23.264;2023-12-20T01:45:27;94637.34;;;-0.63;95.54
77041;BME280;65974;42.664;23.264;2023-12-20T01:47:57;94634.09;;;-0.68;95.33
77041;BME280;65974;42.664;23.264;2023-12-20T01:50:23;94632.34;;;-0.82;95.58
77041;BME280;65974;42.664;23.264;2023-12-20T01:52:49;94624.03;;;-0.84;96.40
77041;BME280;65974;42.664;23.264;2023-12-20T01:55:18;94629.88;;;-0.78;96.43
77041;BME280;65974;42.664;23.264;2023-12-20T01:57:45;94628.09;;;-0.69;95.70
77041;BME280;65974;42.664;23.264;2023-12-20T02:02:39;94624.72;;;-0.61;94.48
77041;BME280;65974;42.664;23.264;2023-12-20T02:05:10;94611.00;;;-0.75;95.08
77041;BME280;65974;42.664;23.264;2023-12-20T02:07:37;94618.41;;;-0.68;94.78
77041;BME280;65974;42.664;23.264;2023-12-20T02:10:04;94609.13;;;-0.74;95.85
77041;BME280;65974;42.664;23.264;2023-12-20T02:12:30;94609.31;;;-0.71;96.15
77041;BME280;65974;42.664;23.264;2023-12-20T02:14:55;94608.88;;;-0.64;95.58
77041;BME280;65974;42.664;23.264;2023-12-20T02:17:22;94593.44;;;-0.74;95.76
77041;BME280;65974;42.664;23.264;2023-12-20T02:19:48;94602.78;;;-0.51;95.27
77041;BME280;65974;42.664;23.264;2023-12-20T02:22:13;94598.28;;;-0.51;95.38
77041;BME280;65974;42.664;23.264;2023-12-20T02:24:39;94595.53;;;-0.46;94.27
77041;BME280;65974;42.664;23.264;2023-12-20T02:27:07;94597.28;;;-0.72;94.89
77041;BME280;65974;42.664;23.264;2023-12-20T02:29:34;94589.34;;;-0.58;95.69
77041;BME280;65974;42.664;23.264;2023-12-20T02:32:00;94583.00;;;-0.66;95.64
77041;BME280;65974;42.664;23.264;2023-12-20T02:34:25;94582.53;;;-0.68;95.27
77041;BME280;65974;42.664;23.264;2023-12-20T02:36:52;94579.66;;;-0.66;94.53
77041;BME280;65974;42.664;23.264;2023-12-20T02:39:19;94567.91;;;-0.77;95.33
77041;BME280;65974;42.664;23.264;2023-12-20T02:41:44;94572.25;;;-0.64;94.22
77041;BME280;65974;42.664;23.264;2023-12-20T02:44:10;94567.97;;;-0.60;94.08
77041;BME280;65974;42.664;23.264;2023-12-20T02:46:35;94573.59;;;-0.75;94.57
77041;BME280;65974;42.664;23.264;2023-12-20T02:49:02;94568.88;;;-0.65;94.75
77041;BME280;65974;42.664;23.264;2023-12-20T02:51:29;94566.88;;;-0.59;95.11
77041;BME280;65974;42.664;23.264;2023-12-20T02:53:54;94569.66;;;-0.64;94.15
77041;BME280;65974;42.664;23.264;2023-12-20T02:56:20;94570.22;;;-0.76;94.51
77041;BME280;65974;42.664;23.264;2023-12-20T02:58:45;94581.53;;;-0.89;95.04
77041;BME280;65974;42.664;23.264;2023-12-20T03:01:10;94569.25;;;-0.89;95.97
77041;BME280;65974;42.664;23.264;2023-12-20T03:03:36;94561.06;;;-0.96;95.49
77041;BME280;65974;42.664;23.264;2023-12-20T03:06:01;94557.44;;;-0.86;96.81
77041;BME280;65974;42.664;23.264;2023-12-20T03:08:29;94560.47;;;-0.93;96.51
77041;BME280;65974;42.664;23.264;2023-12-20T03:10:55;94562.03;;;-0.92;96.25
77041;BME280;65974;42.664;23.264;2023-12-20T03:13:21;94565.50;;;-1.05;96.64
77041;BME280;65974;42.664;23.264;2023-12-20T03:15:46;94560.59;;;-0.98;96.06
77041;BME280;65974;42.664;23.264;2023-12-20T03:18:12;94560.34;;;-0.88;94.85
77041;BME280;65974;42.664;23.264;2023-12-20T03:20:37;94555.25;;;-0.93;95.65
77041;BME280;65974;42.664;23.264;2023-12-20T03:23:04;94552.31;;;-0.91;94.88
77041;BME280;65974;42.664;23.264;2023-12-20T03:25:29;94557.44;;;-0.86;95.01
77041;BME280;65974;42.664;23.264;2023-12-20T03:27:55;94552.81;;;-0.81;93.87
77041;BME280;65974;42.664;23.264;2023-12-20T03:30:20;94549.69;;;-1.00;94.74
77041;BME280;65974;42.664;23.264;2023-12-20T03:32:47;94552.09;;;-1.12;95.06
77041;BME280;65974;42.664;23.264;2023-12-20T03:35:13;94539.00;;;-1.20;95.92
77041;BME280;65974;42.664;23.264;2023-12-20T03:37:39;94543.19;;;-1.02;94.75
77041;BME280;65974;42.664;23.264;2023-12-20T03:40:05;94551.00;;;-1.11;95.46
77041;BME280;65974;42.664;23.264;2023-12-20T03:42:30;94541.75;;;-1.17;95.26
77041;BME280;65974;42.664;23.264;2023-12-20T03:44:56;94549.16;;;-1.10;94.96
77041;BME280;65974;42.664;23.264;2023-12-20T03:47:21;94550.16;;;-0.98;94.17
77041;BME280;65974;42.664;23.264;2023-12-20T03:49:47;94543.22;;;-0.94;93.83
77041;BME280;65974;42.664;23.264;2023-12-20T03:52:13;94547.97;;;-1.04;94.60
77041;BME280;65974;42.664;23.264;2023-12-20T03:54:39;94543.66;;;-1.09;94.48
77041;BME280;65974;42.664;23.264;2023-12-20T03:57:04;94547.53;;;-0.98;93.78
77041;BME280;65974;42.664;23.264;2023-12-20T03:59:35;94535.63;;;-1.12;94.25
77041;BME280;65974;42.664;23.264;2023-12-20T04:02:01;94531.41;;;-0.91;94.92
77041;BME280;65974;42.664;23.264;2023-12-20T04:04:27;94530.16;;;-0.94;93.56
77041;BME280;65974;42.664;23.264;2023-12-20T04:06:52;94522.50;;;-0.90;92.98
77041;BME280;65974;42.664;23.264;2023-12-20T04:09:19;94525.69;;;-1.02;93.78
77041;BME280;65974;42.664;23.264;2023-12-20T04:11:45;94519.94;;;-1.21;94.94
77041;BME280;65974;42.664;23.264;2023-12-20T04:14:10;94519.00;;;-1.25;96.01
77041;BME280;65974;42.664;23.264;2023-12-20T04:16:36;94513.63;;;-1.20;95.07
77041;BME280;65974;42.664;23.264;2023-12-20T04:19:02;94513.63;;;-1.20;94.73
77041;BME280;65974;42.664;23.264;2023-12-20T04:21:27;94498.75;;;-1.19;95.03
77041;BME280;65974;42.664;23.264;2023-12-20T04:23:53;94500.44;;;-1.15;94.45
77041;BME280;65974;42.664;23.264;2023-12-20T04:26:18;94502.41;;;-1.20;94.94
77041;BME280;65974;42.664;23.264;2023-12-20T04:28:44;94505.53;;;-1.40;95.07
77041;BME280;65974;42.664;23.264;2023-12-20T04:31:10;94502.22;;;-1.32;95.84
77041;BME280;65974;42.664;23.264;2023-12-20T04:33:35;94502.97;;;-1.32;96.07
77041;BME280;65974;42.664;23.264;2023-12-20T04:36:01;94500.25;;;-1.27;96.59
77041;BME280;65974;42.664;23.264;2023-12-20T04:38:26;94492.41;;;-1.27;95.28
77041;BME280;65974;42.664;23.264;2023-12-20T04:40:52;94491.94;;;-1.29;94.83
77041;BME280;65974;42.664;23.264;2023-12-20T04:43:17;94498.72;;;-1.28;95.05
77041;BME280;65974;42.664;23.264;2023-12-20T04:45:43;94498.91;;;-1.16;94.80
77041;BME280;65974;42.664;23.264;2023-12-20T04:48:08;94490.75;;;-1.14;94.89
77041;BME280;65974;42.664;23.264;2023-12-20T04:50:34;94489.72;;;-1.05;94.85
77041;BME280;65974;42.664;23.264;2023-12-20T04:52:59;94495.41;;;-1.42;94.58
77041;BME280;65974;42.664;23.264;2023-12-20T04:55:26;94494.84;;;-1.30;94.98
77041;BME280;65974;42.664;23.264;2023-12-20T04:57:52;94492.47;;;-1.40;95.67
77041;BME280;65974;42.664;23.264;2023-12-20T05:00:17;94492.72;;;-1.28;96.46
77041;BME280;65974;42.664;23.264;2023-12-20T05:02:43;94481.81;;;-1.22;96.47
77041;BME280;65974;42.664;23.264;2023-12-20T05:05:08;94478.09;;;-1.29;95.68
77041;BME280;65974;42.664;23.264;2023-12-20T05:07:35;94483.50;;;-1.26;95.25
77041;BME280;65974;42.664;23.264;2023-12-20T05:10:01;94482.53;;;-1.30;95.07
77041;BME280;65974;42.664;23.264;2023-12-20T05:12:27;94473.97;;;-1.30;95.81
77041;BME280;65974;42.664;23.264;2023-12-20T05:14:53;94474.81;;;-1.43;95.01
77041;BME280;65974;42.664;23.264;2023-12-20T05:17:19;94472.94;;;-1.51;95.00
77041;BME280;65974;42.664;23.264;2023-12-20T05:19:45;94468.69;;;-1.39;95.70
77041;BME280;65974;42.664;23.264;2023-12-20T05:22:11;94472.38;;;-1.40;94.95
77041;BME280;65974;42.664;23.264;2023-12-20T05:24:36;94465.16;;;-1.43;94.64
77041;BME280;65974;42.664;23.264;2023-12-20T05:27:02;94468.31;;;-1.54;95.31
77041;BME280;65974;42.664;23.264;2023-12-20T05:29:27;94464.00;;;-1.59;95.21
77041;BME280;65974;42.664;23.264;2023-12-20T05:31:53;94455.41;;;-1.51;95.15
77041;BME280;65974;42.664;23.264;2023-12-20T05:34:19;94454.16;;;-1.62;95.73
77041;BME280;65974;42.664;23.264;2023-12-20T05:36:45;94456.03;;;-1.54;95.30
77041;BME280;65974;42.664;23.264;2023-12-20T05:39:11;94449.09;;;-1.59;95.49
77041;BME280;65974;42.664;23.264;2023-12-20T05:41:36;94454.16;;;-1.62;95.22
77041;BME280;65974;42.664;23.264;2023-12-20T05:44:03;94450.47;;;-1.61;96.12
77041;BME280;65974;42.664;23.264;2023-12-20T05:46:29;94452.03;;;-1.60;95.44
77041;BME280;65974;42.664;23.264;2023-12-20T05:48:55;94460.56;;;-1.68;95.07
77041;BME280;65974;42.664;23.264;2023-12-20T05:51:21;94452.22;;;-1.79;95.75
77041;BME280;65974;42.664;23.264;2023-12-20T05:53:47;94448.34;;;-1.90;96.34
77041;BME280;65974;42.664;23.264;2023-12-20T05:56:14;94450.94;;;-1.90;96.88
77041;BME280;65974;42.664;23.264;2023-12-20T05:58:41;94431.28;;;-1.87;96.79
77041;BME280;65974;42.664;23.264;2023-12-20T06:01:06;94444.94;;;-1.90;96.35
77041;BME280;65974;42.664;23.264;2023-12-20T06:03:35;94440.31;;;-1.93;97.31
77041;BME280;65974;42.664;23.264;2023-12-20T06:06:09;94441.91;;;-1.84;96.75
77041;BME280;65974;42.664;23.264;2023-12-20T06:08:36;94442.97;;;-1.85;96.43
77041;BME280;65974;42.664;23.264;2023-12-20T06:11:01;94434.09;;;-1.84;95.68
77041;BME280;65974;42.664;23.264;2023-12-20T06:13:27;94431.72;;;-1.94;95.81
77041;BME280;65974;42.664;23.264;2023-12-20T06:15:54;94436.22;;;-1.86;96.46
77041;BME280;65974;42.664;23.264;2023-12-20T06:18:21;94441.41;;;-1.94;95.79
77041;BME280;65974;42.664;23.264;2023-12-20T06:20:46;94442.97;;;-1.85;96.22
77041;BME280;65974;42.664;23.264;2023-12-20T06:23:12;94439.69;;;-1.99;95.52
77041;BME280;65974;42.664;23.264;2023-12-20T06:25:37;94450.13;;;-1.99;95.98
77041;BME280;65974;42.664;23.264;2023-12-20T06:28:03;94446.09;;;-2.05;95.32
77041;BME280;65974;42.664;23.264;2023-12-20T06:30:28;94441.47;;;-2.08;95.73
77041;BME280;65974;42.664;23.264;2023-12-20T06:32:54;94437.78;;;-2.07;95.54
77041;BME280;65974;42.664;23.264;2023-12-20T06:35:20;94448.28;;;-2.20;97.10
77041;BME280;65974;42.664;23.264;2023-12-20T06:37:45;94437.53;;;-2.19;96.84
77041;BME280;65974;42.664;23.264;2023-12-20T06:40:11;94440.56;;;-2.25;96.96
77041;BME280;65974;42.664;23.264;2023-12-20T06:42:37;94440.00;;;-2.22;97.25
77041;BME280;65974;42.664;23.264;2023-12-20T06:45:03;94427.41;;;-2.20;97.55
77041;BME280;65974;42.664;23.264;2023-12-20T06:47:28;94431.63;;;-2.33;97.57
77041;BME280;65974;42.664;23.264;2023-12-20T06:49:54;94430.56;;;-2.32;97.98
77041;BME280;65974;42.664;23.264;2023-12-20T06:52:19;94421.91;;;-2.41;98.11
77041;BME280;65974;42.664;23.264;2023-12-20T06:54:45;94414.84;;;-2.41;98.54
77041;BME280;65974;42.664;23.264;2023-12-20T06:57:10;94421.50;;;-2.34;98.84
77041;BME280;65974;42.664;23.264;2023-12-20T06:59:40;94413.13;;;-2.23;98.14
77041;BME280;65974;42.664;23.264;2023-12-20T07:02:06;94414.03;;;-2.27;97.85
77041;BME280;65974;42.664;23.264;2023-12-20T07:04:33;94408.53;;;-2.26;98.41
77041;BME280;65974;42.664;23.264;2023-12-20T07:07:00;94409.84;;;-2.06;97.95
77041;BME280;65974;42.664;23.264;2023-12-20T07:09:26;94412.66;;;-2.03;98.22
77041;BME280;65974;42.664;23.264;2023-12-20T07:11:52;94407.34;;;-1.89;97.68
77041;BME280;65974;42.664;23.264;2023-12-20T07:14:18;94403.75;;;-1.71;96.73
77041;BME280;65974;42.664;23.264;2023-12-20T07:16:43;94401.44;;;-1.73;97.18
77041;BME280;65974;42.664;23.264;2023-12-20T07:19:09;94403.50;;;-1.52;96.99
77041;BME280;65974;42.664;23.264;2023-12-20T07:21:35;94395.81;;;-1.49;96.64
77041;BME280;65974;42.664;23.264;2023-12-20T07:24:00;94403.09;;;-1.37;97.01
77041;BME280;65974;42.664;23.264;2023-12-20T07:26:26;94393.59;;;-1.25;96.73
77041;BME280;65974;42.664;23.264;2023-12-20T07:28:53;94394.72;;;-1.17;96.48
77041;BME280;65974;42.664;23.264;2023-12-20T07:31:20;94389.00;;;-1.11;96.12
77041;BME280;65974;42.664;23.264;2023-12-20T07:33:46;94384.72;;;-1.15;96.40
77041;BME280;65974;42.664;23.264;2023-12-20T07:36:12;94397.63;;;-1.02;96.27
77041;BME280;65974;42.664;23.264;2023-12-20T07:38:38;94391.94;;;-1.04;95.99
77041;BME280;65974;42.664;23.264;2023-12-20T07:41:03;94389.94;;;-1.15;96.05
77041;BME280;65974;42.664;23.264;2023-12-20T07:43:29;94389.09;;;-1.41;96.40
77041;BME280;65974;42.664;23.264;2023-12-20T07:45:54;94390.13;;;-1.51;97.10
77041;BME280;65974;42.664;23.264;2023-12-20T07:48:20;94392.28;;;-1.53;97.55
77041;BME280;65974;42.664;23.264;2023-12-20T07:50:45;94391.19;;;-1.61;98.85
77041;BME280;65974;42.664;23.264;2023-12-20T07:53:11;94388.28;;;-1.59;99.24
77041;BME280;65974;42.664;23.264;2023-12-20T07:55:36;94386.28;;;-1.62;98.68
77041;BME280;65974;42.664;23.264;2023-12-20T07:58:02;94390.72;;;-1.63;99.00
77041;BME280;65974;42.664;23.264;2023-12-20T08:00:27;94399.97;;;-1.57;99.35
77041;BME280;65974;42.664;23.264;2023-12-20T08:02:53;94389.53;;;-1.48;99.13
77041;BME280;65974;42.664;23.264;2023-12-20T08:05:19;94380.34;;;-1.45;98.76
77041;BME280;65974;42.664;23.264;2023-12-20T08:07:48;94375.66;;;-1.18;98.60
77041;BME280;65974;42.664;23.264;2023-12-20T08:10:13;94375.31;;;-1.16;97.91
77041;BME280;65974;42.664;23.264;2023-12-20T08:12:39;94379.78;;;-1.17;98.21
77041;BME280;65974;42.664;23.264;2023-12-20T08:15:05;94375.19;;;-1.20;98.58
77041;BME280;65974;42.664;23.264;2023-12-20T08:17:31;94368.44;;;-1.04;99.49
77041;BME280;65974;42.664;23.264;2023-12-20T08:19:56;94370.13;;;-0.91;98.97
77041;BME280;65974;42.664;23.264;2023-12-20T08:22:22;94365.22;;;-0.75;97.78
77041;BME280;65974;42.664;23.264;2023-12-20T08:24:47;94352.44;;;-0.51;97.58
77041;BME280;65974;42.664;23.264;2023-12-20T08:27:13;94355.66;;;-0.37;96.90
77041;BME280;65974;42.664;23.264;2023-12-20T08:29:38;94358.72;;;-0.26;95.77
77041;BME280;65974;42.664;23.264;2023-12-20T08:32:04;94352.56;;;-0.30;96.57
77041;BME280;65974;42.664;23.264;2023-12-20T08:34:30;94350.84;;;-0.09;96.25
77041;BME280;65974;42.664;23.264;2023-12-20T08:36:55;94340.53;;;-0.14;95.91
77041;BME280;65974;42.664;23.264;2023-12-20T08:39:21;94338.06;;;-0.19;96.40
77041;BME280;65974;42.664;23.264;2023-12-20T08:41:47;94344.94;;;-0.06;96.32
77041;BME280;65974;42.664;23.264;2023-12-20T08:44:12;94334.75;;;0.10;96.18
77041;BME280;65974;42.664;23.264;2023-12-20T08:46:38;94334.25;;;0.16;96.13
77041;BME280;65974;42.664;23.264;2023-12-20T08:49:03;94329.53;;;0.01;96.07
77041;BME280;65974;42.664;23.264;2023-12-20T08:51:30;94331.72;;;-0.01;96.32
77041;BME280;65974;42.664;23.264;2023-12-20T08:53:56;94322.66;;;-0.12;96.68
77041;BME280;65974;42.664;23.264;2023-12-20T08:56:22;94325.63;;;-0.22;96.97
77041;BME280;65974;42.664;23.264;2023-12-20T08:58:49;94311.59;;;-0.18;97.68
77041;BME280;65974;42.664;23.264;2023-12-20T09:01:14;94319.09;;;-0.08;97.44
77041;BME280;65974;42.664;23.264;2023-12-20T09:03:40;94311.38;;;-0.04;96.56
77041;BME280;65974;42.664;23.264;2023-12-20T09:06:06;94299.81;;;0.06;96.21
77041;BME280;65974;42.664;23.264;2023-12-20T09:08:32;94290.81;;;0.15;95.83
77041;BME280;65974;42.664;23.264;2023-12-20T09:10:57;94287.25;;;0.20;95.64
77041;BME280;65974;42.664;23.264;2023-12-20T09:13:23;94279.72;;;0.18;95.73
77041;BME280;65974;42.664;23.264;2023-12-20T09:15:57;94268.28;;;0.31;95.34
77041;BME280;65974;42.664;23.264;2023-12-20T09:18:22;94257.69;;;0.28;95.35
77041;BME280;65974;42.664;23.264;2023-12-20T09:20:48;94249.75;;;0.36;95.38
77041;BME280;65974;42.664;23.264;2023-12-20T09:23:14;94252.19;;;0.41;95.32
77041;BME280;65974;42.664;23.264;2023-12-20T09:25:39;94241.69;;;0.21;95.69
77041;BME280;65974;42.664;23.264;2023-12-20T09:28:05;94237.66;;;0.23;96.12
77041;BME280;65974;42.664;23.264;2023-12-20T09:30:31;94225.59;;;0.31;95.81
77041;BME280;65974;42.664;23.264;2023-12-20T09:33:01;94234.81;;;0.37;96.11
77041;BME280;65974;42.664;23.264;2023-12-20T09:35:28;94228.66;;;0.33;95.79
77041;BME280;65974;42.664;23.264;2023-12-20T09:37:55;94214.34;;;0.30;95.64
77041;BME280;65974;42.664;23.264;2023-12-20T09:40:20;94213.59;;;0.30;96.49
77041;BME280;65974;42.664;23.264;2023-12-20T09:42:55;94206.59;;;0.42;96.93
77041;BME280;65974;42.664;23.264;2023-12-20T09:45:21;94199.16;;;0.44;96.29
77041;BME280;65974;42.664;23.264;2023-12-20T09:47:49;94203.69;;;0.56;95.92
77041;BME280;65974;42.664;23.264;2023-12-20T09:50:15;94204.78;;;0.55;95.71
77041;BME280;65974;42.664;23.264;2023-12-20T09:52:42;94194.38;;;0.67;95.37
77041;BME280;65974;42.664;23.264;2023-12-20T09:55:08;94188.41;;;0.58;95.80
77041;BME280;65974;42.664;23.264;2023-12-20T09:57:35;94186.50;;;0.67;95.66
77041;BME280;65974;42.664;23.264;2023-12-20T10:00:00;94188.78;;;0.68;95.44
77041;BME280;65974;42.664;23.264;2023-12-20T10:02:26;94178.56;;;0.75;94.55
77041;BME280;65974;42.664;23.264;2023-12-20T10:04:54;94195.44;;;0.87;95.04
77041;BME280;65974;42.664;23.264;2023-12-20T10:07:19;94189.78;;;0.97;94.80
77041;BME280;65974;42.664;23.264;2023-12-20T10:09:47;94185.88;;;1.03;93.84
77041;BME280;65974;42.664;23.264;2023-12-20T10:12:13;94183.03;;;0.96;94.38
77041;BME280;65974;42.664;23.264;2023-12-20T10:14:39;94174.94;;;1.01;94.50
77041;BME280;65974;42.664;23.264;2023-12-20T10:17:05;94169.06;;;1.04;93.99
77041;BME280;65974;42.664;23.264;2023-12-20T10:19:32;94164.78;;;1.32;93.87
77041;BME280;65974;42.664;23.264;2023-12-20T10:22:01;94163.56;;;1.41;93.06
77041;BME280;65974;42.664;23.264;2023-12-20T10:24:29;94149.06;;;1.80;91.69
77041;BME280;65974;42.664;23.264;2023-12-20T10:27:05;94148.84;;;1.85;91.72
77041;BME280;65974;42.664;23.264;2023-12-20T10:29:37;94139.94;;;1.90;90.86
77041;BME280;65974;42.664;23.264;2023-12-20T10:34:48;94126.41;;;2.00;89.72
77041;BME280;65974;42.664;23.264;2023-12-20T10:37:14;94120.72;;;2.38;88.60
77041;BME280;65974;42.664;23.264;2023-12-20T10:39:41;94114.22;;;2.47;87.27
77041;BME280;65974;42.664;23.264;2023-12-20T10:42:09;94120.69;;;2.77;86.22
77041;BME280;65974;42.664;23.264;2023-12-20T10:44:36;94117.31;;;2.77;86.07
77041;BME280;65974;42.664;23.264;2023-12-20T10:47:02;94112.63;;;2.70;86.17
77041;BME280;65974;42.664;23.264;2023-12-20T10:49:30;94105.16;;;2.72;87.06
77041;BME280;65974;42.664;23.264;2023-12-20T10:51:57;94096.03;;;2.82;85.56
77041;BME280;65974;42.664;23.264;2023-12-20T10:54:25;94098.03;;;3.16;84.91
77041;BME280;65974;42.664;23.264;2023-12-20T10:56:52;94093.63;;;3.51;82.94
77041;BME280;65974;42.664;23.264;2023-12-20T10:59:19;94093.19;;;3.49;82.54
77041;BME280;65974;42.664;23.264;2023-12-20T11:01:47;94085.28;;;3.49;83.53
77041;BME280;65974;42.664;23.264;2023-12-20T11:04:16;94073.31;;;3.67;82.22
77041;BME280;65974;42.664;23.264;2023-12-20T11:06:54;94066.81;;;3.80;81.32
77041;BME280;65974;42.664;23.264;2023-12-20T11:12:13;94069.31;;;4.08;80.59
77041;BME280;65974;42.664;23.264;2023-12-20T11:14:49;94056.59;;;4.14;79.48
77041;BME280;65974;42.664;23.264;2023-12-20T11:17:15;94063.41;;;4.15;79.65
77041;BME280;65974;42.664;23.264;2023-12-20T11:20:04;94052.59;;;4.39;78.99
77041;BME280;65974;42.664;23.264;2023-12-20T11:22:31;94044.75;;;4.61;78.59
77041;BME280;65974;42.664;23.264;2023-12-20T11:25:06;94029.22;;;4.56;78.31
77041;BME280;65974;42.664;23.264;2023-12-20T11:27:37;94034.19;;;4.81;77.84
77041;BME280;65974;42.664;23.264;2023-12-20T11:30:05;94033.31;;;4.54;78.38
77041;BME280;65974;42.664;23.264;2023-12-20T11:32:34;94020.28;;;4.42;79.06
77041;BME280;65974;42.664;23.264;2023-12-20T11:35:18;94017.00;;;4.67;77.77
77041;BME280;65974;42.664;23.264;2023-12-20T11:37:45;94006.28;;;4.38;79.09
77041;BME280;65974;42.664;23.264;2023-12-20T11:40:17;94011.81;;;4.14;79.51
77041;BME280;65974;42.664;23.264;2023-12-20T11:42:51;93995.47;;;4.24;79.11
77041;BME280;65974;42.664;23.264;2023-12-20T11:45:20;94000.44;;;4.10;79.56
77041;BME280;65974;42.664;23.264;2023-12-20T11:47:50;93996.56;;;4.04;79.74
77041;BME280;65974;42.664;23.264;2023-12-20T11:50:20;93992.38;;;3.83;81.08
77041;BME280;65974;42.664;23.264;2023-12-20T11:52:47;93979.72;;;4.08;80.22
77041;BME280;65974;42.664;23.264;2023-12-20T11:55:12;93975.00;;;3.98;79.77
77041;BME280;65974;42.664;23.264;2023-12-20T11:57:38;93980.19;;;4.14;80.35
77041;BME280;65974;42.664;23.264;2023-12-20T12:00:04;93964.53;;;4.21;78.82
77041;BME280;65974;42.664;23.264;2023-12-20T12:02:30;93963.97;;;3.92;79.63
77041;BME280;65974;42.664;23.264;2023-12-20T12:04:56;93948.16;;;3.92;80.51
77041;BME280;65974;42.664;23.264;2023-12-20T12:07:24;93944.09;;;3.95;80.18
77041;BME280;65974;42.664;23.264;2023-12-20T12:09:49;93943.94;;;3.88;80.32
77041;BME280;65974;42.664;23.264;2023-12-20T12:12:15;93945.69;;;4.00;80.22
77041;BME280;65974;42.664;23.264;2023-12-20T12:14:42;93941.28;;;4.07;79.83
77041;BME280;65974;42.664;23.264;2023-12-20T12:17:14;93930.00;;;4.26;78.88
77041;BME280;65974;42.664;23.264;2023-12-20T12:19:40;93930.22;;;4.17;79.22
77041;BME280;65974;42.664;23.264;2023-12-20T12:22:11;93926.66;;;4.10;79.74
77041;BME280;65974;42.664;23.264;2023-12-20T12:24:46;93922.31;;;4.40;78.86
77041;BME280;65974;42.664;23.264;2023-12-20T12:27:13;93912.59;;;4.44;78.42
77041;BME280;65974;42.664;23.264;2023-12-20T12:29:38;93918.81;;;4.55;78.90
77041;BME280;65974;42.664;23.264;2023-12-20T12:32:08;93919.22;;;4.34;78.32
77041;BME280;65974;42.664;23.264;2023-12-20T12:34:34;93915.22;;;4.21;78.97
77041;BME280;65974;42.664;23.264;2023-12-20T12:37:00;93925.44;;;4.04;80.50
77041;BME280;65974;42.664;23.264;2023-12-20T12:39:26;93922.53;;;4.09;80.43
77041;BME280;65974;42.664;23.264;2023-12-20T12:41:53;93924.84;;;4.14;80.92
77041;BME280;65974;42.664;23.264;2023-12-20T12:44:19;93927.25;;;4.00;81.13
77041;BME280;65974;42.664;23.264;2023-12-20T12:46:46;93912.31;;;3.88;81.84
77041;BME280;65974;42.664;23.264;2023-12-20T12:49:12;93917.31;;;3.93;81.48
77041;BME280;65974;42.664;23.264;2023-12-20T12:51:39;93918.16;;;3.78;82.46
77041;BME280;65974;42.664;23.264;2023-12-20T12:54:04;93913.38;;;3.83;82.32
77041;BME280;65974;42.664;23.264;2023-12-20T12:56:30;93907.16;;;3.72;82.16